sensor_id;sensor_type;location;lat;lon;timestamp;P1;durP1;ratioP1;P2;durP2;ratioP2
3407;SDS011;1717;50.240;8.406;2023-12-29T00:01:48;5.07;;;3.57;;
3407;SDS011;1717;50.240;8.406;2023-12-29T00:04:16;3.30;;;3.00;;
3407;SDS011;1717;50.240;8.406;2023-12-29T00:06:44;4.00;;;3.60;;
3407;SDS011;1717;50.240;8.406;2023-12-29T00:09:10;3.90;;;3.60;;
3407;SDS011;1717;50.240;8.406;2023-12-29T00:11:38;3.73;;;3.43;;
3407;SDS011;1717;50.240;8.406;2023-12-29T00:14:04;4.53;;;4.10;;
3407;SDS011;1717;50.240;8.406;2023-12-29T00:16:31;4.20;;;3.80;;
3407;SDS011;1717;50.240;8.406;2023-12-29T00:18:58;5.03;;;4.23;;
3407;SDS011;1717;50.240;8.406;2023-12-29T00:21:26;4.30;;;3.90;;
3407;SDS011;1717;50.240;8.406;2023-12-29T00:23:53;4.40;;;4.00;;
3407;SDS011;1717;50.240;8.406;2023-12-29T00:26:21;4.30;;;3.80;;
3407;SDS011;1717;50.240;8.406;2023-12-29T00:28:47;4.40;;;4.10;;
3407;SDS011;1717;50.240;8.406;2023-12-29T00:31:14;4.97;;;4.47;;
3407;SDS011;1717;50.240;8.406;2023-12-29T00:33:41;3.63;;;3.33;;
3407;SDS011;1717;50.240;8.406;2023-12-29T00:36:08;4.53;;;4.13;;
3407;SDS011;1717;50.240;8.406;2023-12-29T00:38:42;3.90;;;3.60;;
3407;SDS011;1717;50.240;8.406;2023-12-29T00:41:09;4.17;;;3.87;;
3407;SDS011;1717;50.240;8.406;2023-12-29T00:43:36;4.10;;;3.70;;
3407;SDS011;1717;50.240;8.406;2023-12-29T00:46:03;4.10;;;3.60;;
3407;SDS011;1717;50.240;8.406;2023-12-29T00:48:30;4.73;;;4.10;;
3407;SDS011;1717;50.240;8.406;2023-12-29T00:50:56;4.00;;;3.63;;
3407;SDS011;1717;50.240;8.406;2023-12-29T00:53:23;3.70;;;3.30;;
3407;SDS011;1717;50.240;8.406;2023-12-29T00:55:51;3.50;;;3.20;;
3407;SDS011;1717;50.240;8.406;2023-12-29T00:58:18;4.60;;;4.00;;
3407;SDS011;1717;50.240;8.406;2023-12-29T01:00:45;4.30;;;3.20;;
3407;SDS011;1717;50.240;8.406;2023-12-29T01:03:12;3.93;;;3.60;;
3407;SDS011;1717;50.240;8.406;2023-12-29T01:05:39;4.07;;;2.90;;
3407;SDS011;1717;50.240;8.406;2023-12-29T01:08:05;3.73;;;3.20;;
3407;SDS011;1717;50.240;8.406;2023-12-29T01:10:32;3.53;;;3.33;;
3407;SDS011;1717;50.240;8.406;2023-12-29T01:13:01;3.73;;;3.10;;
3407;SDS011;1717;50.240;8.406;2023-12-29T01:15:28;3.70;;;3.37;;
3407;SDS011;1717;50.240;8.406;2023-12-29T01:17:54;3.23;;;2.93;;
3407;SDS011;1717;50.240;8.406;2023-12-29T01:20:21;3.53;;;3.00;;
3407;SDS011;1717;50.240;8.406;2023-12-29T01:22:48;3.10;;;2.73;;
3407;SDS011;1717;50.240;8.406;2023-12-29T01:25:15;3.87;;;3.03;;
3407;SDS011;1717;50.240;8.406;2023-12-29T01:27:42;3.87;;;3.47;;
3407;SDS011;1717;50.240;8.406;2023-12-29T01:30:10;3.97;;;3.60;;
3407;SDS011;1717;50.240;8.406;2023-12-29T01:32:38;3.30;;;3.03;;
3407;SDS011;1717;50.240;8.406;2023-12-29T01:35:05;4.60;;;4.20;;
3407;SDS011;1717;50.240;8.406;2023-12-29T01:37:32;5.10;;;3.57;;
3407;SDS011;1717;50.240;8.406;2023-12-29T01:39:59;3.40;;;3.10;;
3407;SDS011;1717;50.240;8.406;2023-12-29T01:42:26;3.60;;;3.30;;
3407;SDS011;1717;50.240;8.406;2023-12-29T01:44:53;3.20;;;2.90;;
3407;SDS011;1717;50.240;8.406;2023-12-29T01:47:21;3.57;;;3.23;;
3407;SDS011;1717;50.240;8.406;2023-12-29T01:49:49;4.23;;;3.83;;
3407;SDS011;1717;50.240;8.406;2023-12-29T01:52:16;3.47;;;2.40;;
3407;SDS011;1717;50.240;8.406;2023-12-29T01:54:45;4.47;;;4.07;;
3407;SDS011;1717;50.240;8.406;2023-12-29T01:57:13;3.17;;;2.87;;
3407;SDS011;1717;50.240;8.406;2023-12-29T01:59:40;3.43;;;2.83;;
3407;SDS011;1717;50.240;8.406;2023-12-29T02:02:10;3.00;;;2.80;;
3407;SDS011;1717;50.240;8.406;2023-12-29T02:04:39;5.33;;;3.17;;
3407;SDS011;1717;50.240;8.406;2023-12-29T02:07:07;3.70;;;2.77;;
3407;SDS011;1717;50.240;8.406;2023-12-29T02:09:34;3.07;;;2.77;;
3407;SDS011;1717;50.240;8.406;2023-12-29T02:12:01;4.23;;;2.90;;
3407;SDS011;1717;50.240;8.406;2023-12-29T02:14:28;4.07;;;2.73;;
3407;SDS011;1717;50.240;8.406;2023-12-29T02:16:58;4.10;;;2.87;;
3407;SDS011;1717;50.240;8.406;2023-12-29T02:19:36;5.23;;;2.47;;
3407;SDS011;1717;50.240;8.406;2023-12-29T02:22:06;4.70;;;2.83;;
3407;SDS011;1717;50.240;8.406;2023-12-29T02:24:33;3.90;;;2.47;;
3407;SDS011;1717;50.240;8.406;2023-12-29T02:27:05;4.10;;;3.10;;
3407;SDS011;1717;50.240;8.406;2023-12-29T02:29:38;4.33;;;2.80;;
3407;SDS011;1717;50.240;8.406;2023-12-29T02:32:10;2.50;;;2.30;;
3407;SDS011;1717;50.240;8.406;2023-12-29T02:34:42;2.83;;;2.13;;
3407;SDS011;1717;50.240;8.406;2023-12-29T02:37:10;2.57;;;2.23;;
3407;SDS011;1717;50.240;8.406;2023-12-29T02:39:38;3.17;;;2.47;;
3407;SDS011;1717;50.240;8.406;2023-12-29T02:42:07;3.33;;;2.20;;
3407;SDS011;1717;50.240;8.406;2023-12-29T02:44:33;10.80;;;2.30;;
3407;SDS011;1717;50.240;8.406;2023-12-29T02:47:00;3.60;;;2.50;;
3407;SDS011;1717;50.240;8.406;2023-12-29T02:49:29;2.47;;;2.20;;
3407;SDS011;1717;50.240;8.406;2023-12-29T02:51:56;3.60;;;1.90;;
3407;SDS011;1717;50.240;8.406;2023-12-29T02:54:22;3.90;;;2.47;;
3407;SDS011;1717;50.240;8.406;2023-12-29T02:56:49;2.50;;;2.20;;
3407;SDS011;1717;50.240;8.406;2023-12-29T02:59:17;4.00;;;3.60;;
3407;SDS011;1717;50.240;8.406;2023-12-29T03:01:44;3.87;;;2.30;;
3407;SDS011;1717;50.240;8.406;2023-12-29T03:04:10;4.60;;;2.10;;
3407;SDS011;1717;50.240;8.406;2023-12-29T03:06:37;2.07;;;1.97;;
3407;SDS011;1717;50.240;8.406;2023-12-29T03:09:06;6.73;;;3.30;;
3407;SDS011;1717;50.240;8.406;2023-12-29T03:11:32;2.70;;;2.50;;
3407;SDS011;1717;50.240;8.406;2023-12-29T03:13:59;4.77;;;2.63;;
3407;SDS011;1717;50.240;8.406;2023-12-29T03:16:27;4.13;;;2.53;;
3407;SDS011;1717;50.240;8.406;2023-12-29T03:18:54;4.37;;;2.57;;
3407;SDS011;1717;50.240;8.406;2023-12-29T03:21:21;3.67;;;2.33;;
3407;SDS011;1717;50.240;8.406;2023-12-29T03:23:48;2.77;;;2.50;;
3407;SDS011;1717;50.240;8.406;2023-12-29T03:26:15;5.53;;;2.00;;
3407;SDS011;1717;50.240;8.406;2023-12-29T03:28:42;2.50;;;2.20;;
3407;SDS011;1717;50.240;8.406;2023-12-29T03:31:08;5.60;;;2.97;;
3407;SDS011;1717;50.240;8.406;2023-12-29T03:33:36;7.30;;;2.73;;
3407;SDS011;1717;50.240;8.406;2023-12-29T03:36:05;3.00;;;2.60;;
3407;SDS011;1717;50.240;8.406;2023-12-29T03:38:32;2.40;;;2.10;;
3407;SDS011;1717;50.240;8.406;2023-12-29T03:40:59;4.20;;;2.80;;
3407;SDS011;1717;50.240;8.406;2023-12-29T03:43:26;3.17;;;2.87;;
3407;SDS011;1717;50.240;8.406;2023-12-29T03:45:53;3.60;;;2.00;;
3407;SDS011;1717;50.240;8.406;2023-12-29T03:48:19;3.40;;;2.40;;
3407;SDS011;1717;50.240;8.406;2023-12-29T03:50:48;5.17;;;2.00;;
3407;SDS011;1717;50.240;8.406;2023-12-29T03:53:15;2.83;;;2.53;;
3407;SDS011;1717;50.240;8.406;2023-12-29T03:55:41;3.17;;;2.17;;
3407;SDS011;1717;50.240;8.406;2023-12-29T03:58:08;3.10;;;2.70;;
3407;SDS011;1717;50.240;8.406;2023-12-29T04:00:35;3.73;;;2.50;;
3407;SDS011;1717;50.240;8.406;2023-12-29T04:03:02;4.60;;;3.13;;
3407;SDS011;1717;50.240;8.406;2023-12-29T04:05:29;2.77;;;2.30;;
3407;SDS011;1717;50.240;8.406;2023-12-29T04:07:57;4.20;;;2.67;;
3407;SDS011;1717;50.240;8.406;2023-12-29T04:10:24;3.33;;;2.63;;
3407;SDS011;1717;50.240;8.406;2023-12-29T04:12:51;3.77;;;3.37;;
3407;SDS011;1717;50.240;8.406;2023-12-29T04:15:18;2.80;;;1.90;;
3407;SDS011;1717;50.240;8.406;2023-12-29T04:17:44;3.50;;;3.17;;
3407;SDS011;1717;50.240;8.406;2023-12-29T04:20:11;5.30;;;2.80;;
3407;SDS011;1717;50.240;8.406;2023-12-29T04:22:38;10.43;;;3.00;;
3407;SDS011;1717;50.240;8.406;2023-12-29T04:25:07;3.30;;;2.80;;
3407;SDS011;1717;50.240;8.406;2023-12-29T04:27:34;12.83;;;3.10;;
3407;SDS011;1717;50.240;8.406;2023-12-29T04:30:01;3.60;;;2.70;;
3407;SDS011;1717;50.240;8.406;2023-12-29T04:32:28;4.43;;;2.77;;
3407;SDS011;1717;50.240;8.406;2023-12-29T04:34:54;3.10;;;2.23;;
3407;SDS011;1717;50.240;8.406;2023-12-29T04:37:21;4.47;;;2.40;;
3407;SDS011;1717;50.240;8.406;2023-12-29T04:39:48;3.87;;;2.40;;
3407;SDS011;1717;50.240;8.406;2023-12-29T04:42:16;2.67;;;2.20;;
3407;SDS011;1717;50.240;8.406;2023-12-29T04:44:43;5.27;;;2.97;;
3407;SDS011;1717;50.240;8.406;2023-12-29T04:47:10;3.97;;;2.40;;
3407;SDS011;1717;50.240;8.406;2023-12-29T04:49:37;3.27;;;2.43;;
3407;SDS011;1717;50.240;8.406;2023-12-29T04:52:04;5.27;;;2.40;;
3407;SDS011;1717;50.240;8.406;2023-12-29T04:54:31;2.60;;;2.40;;
3407;SDS011;1717;50.240;8.406;2023-12-29T04:56:57;2.80;;;2.53;;
3407;SDS011;1717;50.240;8.406;2023-12-29T04:59:26;3.47;;;2.13;;
3407;SDS011;1717;50.240;8.406;2023-12-29T05:01:52;5.47;;;2.60;;
3407;SDS011;1717;50.240;8.406;2023-12-29T05:04:19;3.50;;;2.60;;
3407;SDS011;1717;50.240;8.406;2023-12-29T05:06:46;2.77;;;2.33;;
3407;SDS011;1717;50.240;8.406;2023-12-29T05:09:13;6.70;;;2.70;;
3407;SDS011;1717;50.240;8.406;2023-12-29T05:11:40;8.83;;;2.57;;
3407;SDS011;1717;50.240;8.406;2023-12-29T05:14:06;3.33;;;3.03;;
3407;SDS011;1717;50.240;8.406;2023-12-29T05:16:35;5.73;;;2.70;;
3407;SDS011;1717;50.240;8.406;2023-12-29T05:19:01;3.40;;;2.30;;
3407;SDS011;1717;50.240;8.406;2023-12-29T05:21:28;2.80;;;2.30;;
3407;SDS011;1717;50.240;8.406;2023-12-29T05:23:56;3.37;;;2.20;;
3407;SDS011;1717;50.240;8.406;2023-12-29T05:26:23;4.77;;;3.00;;
3407;SDS011;1717;50.240;8.406;2023-12-29T05:28:49;2.50;;;2.10;;
3407;SDS011;1717;50.240;8.406;2023-12-29T05:31:16;3.73;;;2.40;;
3407;SDS011;1717;50.240;8.406;2023-12-29T05:33:45;3.67;;;2.20;;
3407;SDS011;1717;50.240;8.406;2023-12-29T05:36:11;2.47;;;2.10;;
3407;SDS011;1717;50.240;8.406;2023-12-29T05:38:38;2.73;;;2.50;;
3407;SDS011;1717;50.240;8.406;2023-12-29T05:41:06;4.13;;;1.93;;
3407;SDS011;1717;50.240;8.406;2023-12-29T05:43:33;4.37;;;2.70;;
3407;SDS011;1717;50.240;8.406;2023-12-29T05:46:00;3.23;;;2.50;;
3407;SDS011;1717;50.240;8.406;2023-12-29T05:48:27;2.67;;;1.83;;
3407;SDS011;1717;50.240;8.406;2023-12-29T05:50:56;3.43;;;2.40;;
3407;SDS011;1717;50.240;8.406;2023-12-29T05:53:22;2.83;;;2.50;;
3407;SDS011;1717;50.240;8.406;2023-12-29T05:55:49;6.33;;;2.80;;
3407;SDS011;1717;50.240;8.406;2023-12-29T05:58:16;4.40;;;2.70;;
3407;SDS011;1717;50.240;8.406;2023-12-29T06:00:43;2.97;;;2.50;;
3407;SDS011;1717;50.240;8.406;2023-12-29T06:03:10;2.40;;;2.03;;
3407;SDS011;1717;50.240;8.406;2023-12-29T06:05:37;5.00;;;2.50;;
3407;SDS011;1717;50.240;8.406;2023-12-29T06:08:06;5.33;;;2.67;;
3407;SDS011;1717;50.240;8.406;2023-12-29T06:10:33;4.17;;;2.30;;
3407;SDS011;1717;50.240;8.406;2023-12-29T06:13:01;4.20;;;2.10;;
3407;SDS011;1717;50.240;8.406;2023-12-29T06:15:29;2.50;;;2.30;;
3407;SDS011;1717;50.240;8.406;2023-12-29T06:17:56;2.70;;;2.20;;
3407;SDS011;1717;50.240;8.406;2023-12-29T06:20:23;3.63;;;2.60;;
3407;SDS011;1717;50.240;8.406;2023-12-29T06:22:50;2.90;;;2.40;;
3407;SDS011;1717;50.240;8.406;2023-12-29T06:25:19;2.43;;;2.23;;
3407;SDS011;1717;50.240;8.406;2023-12-29T06:27:46;3.07;;;2.23;;
3407;SDS011;1717;50.240;8.406;2023-12-29T06:30:13;3.30;;;2.63;;
3407;SDS011;1717;50.240;8.406;2023-12-29T06:32:41;3.10;;;2.30;;
3407;SDS011;1717;50.240;8.406;2023-12-29T06:35:08;3.23;;;2.70;;
3407;SDS011;1717;50.240;8.406;2023-12-29T06:37:36;6.40;;;2.60;;
3407;SDS011;1717;50.240;8.406;2023-12-29T06:40:03;4.47;;;2.27;;
3407;SDS011;1717;50.240;8.406;2023-12-29T06:42:32;7.37;;;2.97;;
3407;SDS011;1717;50.240;8.406;2023-12-29T06:44:59;2.63;;;2.43;;
3407;SDS011;1717;50.240;8.406;2023-12-29T06:47:26;2.97;;;2.57;;
3407;SDS011;1717;50.240;8.406;2023-12-29T06:49:53;7.93;;;3.20;;
3407;SDS011;1717;50.240;8.406;2023-12-29T06:52:20;5.30;;;2.47;;
3407;SDS011;1717;50.240;8.406;2023-12-29T06:54:47;3.40;;;2.23;;
3407;SDS011;1717;50.240;8.406;2023-12-29T06:57:14;4.37;;;2.13;;
3407;SDS011;1717;50.240;8.406;2023-12-29T06:59:43;4.07;;;2.10;;
3407;SDS011;1717;50.240;8.406;2023-12-29T07:02:10;6.57;;;3.10;;
3407;SDS011;1717;50.240;8.406;2023-12-29T07:04:36;8.23;;;2.60;;
3407;SDS011;1717;50.240;8.406;2023-12-29T07:07:07;2.70;;;2.47;;
3407;SDS011;1717;50.240;8.406;2023-12-29T07:09:37;6.67;;;2.70;;
3407;SDS011;1717;50.240;8.406;2023-12-29T07:12:04;5.47;;;2.47;;
3407;SDS011;1717;50.240;8.406;2023-12-29T07:14:31;3.97;;;2.43;;
3407;SDS011;1717;50.240;8.406;2023-12-29T07:17:00;3.20;;;2.23;;
3407;SDS011;1717;50.240;8.406;2023-12-29T07:19:27;8.47;;;2.50;;
3407;SDS011;1717;50.240;8.406;2023-12-29T07:22:01;3.10;;;2.33;;
3407;SDS011;1717;50.240;8.406;2023-12-29T07:24:29;2.67;;;2.40;;
3407;SDS011;1717;50.240;8.406;2023-12-29T07:26:56;4.33;;;2.07;;
3407;SDS011;1717;50.240;8.406;2023-12-29T07:29:23;3.23;;;2.13;;
3407;SDS011;1717;50.240;8.406;2023-12-29T07:31:50;4.10;;;2.93;;
3407;SDS011;1717;50.240;8.406;2023-12-29T07:34:18;2.87;;;2.13;;
3407;SDS011;1717;50.240;8.406;2023-12-29T07:36:45;2.53;;;2.33;;
3407;SDS011;1717;50.240;8.406;2023-12-29T07:39:12;3.80;;;2.60;;
3407;SDS011;1717;50.240;8.406;2023-12-29T07:41:40;3.50;;;2.30;;
3407;SDS011;1717;50.240;8.406;2023-12-29T07:44:07;3.73;;;2.30;;
3407;SDS011;1717;50.240;8.406;2023-12-29T07:46:34;10.17;;;2.90;;
3407;SDS011;1717;50.240;8.406;2023-12-29T07:49:01;3.60;;;2.70;;
3407;SDS011;1717;50.240;8.406;2023-12-29T07:51:29;3.57;;;2.70;;
3407;SDS011;1717;50.240;8.406;2023-12-29T07:53:56;2.70;;;2.50;;
3407;SDS011;1717;50.240;8.406;2023-12-29T07:56:23;4.20;;;2.37;;
3407;SDS011;1717;50.240;8.406;2023-12-29T07:58:50;5.30;;;2.90;;
3407;SDS011;1717;50.240;8.406;2023-12-29T08:01:17;3.97;;;2.93;;
3407;SDS011;1717;50.240;8.406;2023-12-29T08:03:43;4.07;;;2.40;;
3407;SDS011;1717;50.240;8.406;2023-12-29T08:06:10;5.13;;;3.37;;
3407;SDS011;1717;50.240;8.406;2023-12-29T08:08:39;3.57;;;2.73;;
3407;SDS011;1717;50.240;8.406;2023-12-29T08:11:06;3.40;;;2.80;;
3407;SDS011;1717;50.240;8.406;2023-12-29T08:13:39;5.83;;;3.30;;
3407;SDS011;1717;50.240;8.406;2023-12-29T08:16:06;2.33;;;2.10;;
3407;SDS011;1717;50.240;8.406;2023-12-29T08:18:33;4.10;;;3.17;;
3407;SDS011;1717;50.240;8.406;2023-12-29T08:21:00;6.83;;;2.70;;
3407;SDS011;1717;50.240;8.406;2023-12-29T08:23:27;5.47;;;3.00;;
3407;SDS011;1717;50.240;8.406;2023-12-29T08:25:55;5.27;;;3.03;;
3407;SDS011;1717;50.240;8.406;2023-12-29T08:28:22;2.50;;;2.20;;
3407;SDS011;1717;50.240;8.406;2023-12-29T08:30:49;7.53;;;2.70;;
3407;SDS011;1717;50.240;8.406;2023-12-29T08:33:16;3.70;;;3.23;;
3407;SDS011;1717;50.240;8.406;2023-12-29T08:35:43;3.90;;;2.60;;
3407;SDS011;1717;50.240;8.406;2023-12-29T08:38:11;3.43;;;2.87;;
3407;SDS011;1717;50.240;8.406;2023-12-29T08:40:38;4.30;;;3.00;;
3407;SDS011;1717;50.240;8.406;2023-12-29T08:43:07;3.00;;;2.70;;
3407;SDS011;1717;50.240;8.406;2023-12-29T08:45:34;4.30;;;2.50;;
3407;SDS011;1717;50.240;8.406;2023-12-29T08:48:01;2.63;;;2.43;;
3407;SDS011;1717;50.240;8.406;2023-12-29T08:50:29;3.50;;;2.50;;
3407;SDS011;1717;50.240;8.406;2023-12-29T08:52:55;3.10;;;2.70;;
3407;SDS011;1717;50.240;8.406;2023-12-29T08:55:22;6.40;;;3.30;;
3407;SDS011;1717;50.240;8.406;2023-12-29T08:57:49;6.07;;;3.13;;
3407;SDS011;1717;50.240;8.406;2023-12-29T09:00:17;4.67;;;2.93;;
3407;SDS011;1717;50.240;8.406;2023-12-29T09:02:44;3.77;;;2.90;;
3407;SDS011;1717;50.240;8.406;2023-12-29T09:05:11;5.33;;;3.20;;
3407;SDS011;1717;50.240;8.406;2023-12-29T09:07:38;7.33;;;3.00;;
3407;SDS011;1717;50.240;8.406;2023-12-29T09:10:06;5.80;;;2.73;;
3407;SDS011;1717;50.240;8.406;2023-12-29T09:12:36;2.50;;;2.13;;
3407;SDS011;1717;50.240;8.406;2023-12-29T09:15:03;3.43;;;2.20;;
3407;SDS011;1717;50.240;8.406;2023-12-29T09:17:32;5.20;;;2.67;;
3407;SDS011;1717;50.240;8.406;2023-12-29T09:19:59;3.80;;;2.30;;
3407;SDS011;1717;50.240;8.406;2023-12-29T09:22:26;4.43;;;2.63;;
3407;SDS011;1717;50.240;8.406;2023-12-29T09:24:53;4.17;;;2.67;;
3407;SDS011;1717;50.240;8.406;2023-12-29T09:27:20;4.90;;;3.17;;
3407;SDS011;1717;50.240;8.406;2023-12-29T09:29:47;3.90;;;2.70;;
3407;SDS011;1717;50.240;8.406;2023-12-29T09:32:14;4.60;;;2.43;;
3407;SDS011;1717;50.240;8.406;2023-12-29T09:34:42;4.10;;;2.60;;
3407;SDS011;1717;50.240;8.406;2023-12-29T09:37:09;10.40;;;2.37;;
3407;SDS011;1717;50.240;8.406;2023-12-29T09:39:36;4.83;;;2.63;;
3407;SDS011;1717;50.240;8.406;2023-12-29T09:42:03;3.77;;;2.83;;
3407;SDS011;1717;50.240;8.406;2023-12-29T09:44:31;3.70;;;2.50;;
3407;SDS011;1717;50.240;8.406;2023-12-29T09:47:02;3.13;;;2.30;;
3407;SDS011;1717;50.240;8.406;2023-12-29T09:49:30;4.43;;;2.50;;
3407;SDS011;1717;50.240;8.406;2023-12-29T09:52:05;5.67;;;2.53;;
3407;SDS011;1717;50.240;8.406;2023-12-29T09:54:33;4.50;;;2.33;;
3407;SDS011;1717;50.240;8.406;2023-12-29T09:57:01;5.93;;;2.30;;
3407;SDS011;1717;50.240;8.406;2023-12-29T09:59:30;4.17;;;2.20;;
3407;SDS011;1717;50.240;8.406;2023-12-29T10:02:00;4.97;;;1.90;;
3407;SDS011;1717;50.240;8.406;2023-12-29T10:04:29;5.97;;;2.70;;
3407;SDS011;1717;50.240;8.406;2023-12-29T10:06:56;3.13;;;2.20;;
3407;SDS011;1717;50.240;8.406;2023-12-29T10:09:27;3.90;;;2.80;;
3407;SDS011;1717;50.240;8.406;2023-12-29T10:11:56;5.90;;;2.87;;
3407;SDS011;1717;50.240;8.406;2023-12-29T10:14:24;5.97;;;2.70;;
3407;SDS011;1717;50.240;8.406;2023-12-29T10:16:58;3.23;;;2.30;;
3407;SDS011;1717;50.240;8.406;2023-12-29T10:19:34;2.30;;;1.90;;
3407;SDS011;1717;50.240;8.406;2023-12-29T10:22:06;4.80;;;2.20;;
3407;SDS011;1717;50.240;8.406;2023-12-29T10:24:42;3.47;;;2.17;;
3407;SDS011;1717;50.240;8.406;2023-12-29T10:27:11;3.53;;;1.90;;
3407;SDS011;1717;50.240;8.406;2023-12-29T10:29:38;4.57;;;2.73;;
3407;SDS011;1717;50.240;8.406;2023-12-29T10:32:05;3.33;;;2.20;;
3407;SDS011;1717;50.240;8.406;2023-12-29T10:34:32;3.10;;;2.10;;
3407;SDS011;1717;50.240;8.406;2023-12-29T10:36:59;3.27;;;2.10;;
3407;SDS011;1717;50.240;8.406;2023-12-29T10:39:29;1.97;;;1.70;;
3407;SDS011;1717;50.240;8.406;2023-12-29T10:42:04;2.60;;;2.07;;
3407;SDS011;1717;50.240;8.406;2023-12-29T10:44:33;2.50;;;1.90;;
3407;SDS011;1717;50.240;8.406;2023-12-29T10:47:07;1.73;;;1.63;;
3407;SDS011;1717;50.240;8.406;2023-12-29T10:49:35;2.33;;;2.13;;
3407;SDS011;1717;50.240;8.406;2023-12-29T10:52:10;2.00;;;1.90;;
3407;SDS011;1717;50.240;8.406;2023-12-29T10:54:37;2.00;;;1.67;;
3407;SDS011;1717;50.240;8.406;2023-12-29T10:57:07;3.07;;;1.80;;
3407;SDS011;1717;50.240;8.406;2023-12-29T10:59:36;3.90;;;1.80;;
3407;SDS011;1717;50.240;8.406;2023-12-29T11:02:03;2.20;;;1.63;;
3407;SDS011;1717;50.240;8.406;2023-12-29T11:04:30;1.60;;;1.50;;
3407;SDS011;1717;50.240;8.406;2023-12-29T11:06:57;4.30;;;1.47;;
3407;SDS011;1717;50.240;8.406;2023-12-29T11:09:27;3.40;;;1.30;;
3407;SDS011;1717;50.240;8.406;2023-12-29T11:11:55;1.90;;;1.57;;
3407;SDS011;1717;50.240;8.406;2023-12-29T11:14:25;2.43;;;1.93;;
3407;SDS011;1717;50.240;8.406;2023-12-29T11:16:53;1.87;;;1.43;;
3407;SDS011;1717;50.240;8.406;2023-12-29T11:19:21;2.10;;;1.63;;
3407;SDS011;1717;50.240;8.406;2023-12-29T11:21:48;3.23;;;1.80;;
3407;SDS011;1717;50.240;8.406;2023-12-29T11:24:18;1.90;;;1.80;;
3407;SDS011;1717;50.240;8.406;2023-12-29T11:26:45;3.50;;;1.97;;
3407;SDS011;1717;50.240;8.406;2023-12-29T11:29:12;2.10;;;1.83;;
3407;SDS011;1717;50.240;8.406;2023-12-29T11:31:40;3.00;;;1.80;;
3407;SDS011;1717;50.240;8.406;2023-12-29T11:34:09;4.87;;;1.80;;
3407;SDS011;1717;50.240;8.406;2023-12-29T11:36:43;1.87;;;1.20;;
3407;SDS011;1717;50.240;8.406;2023-12-29T11:39:14;2.13;;;1.77;;
3407;SDS011;1717;50.240;8.406;2023-12-29T11:41:49;1.57;;;1.30;;
3407;SDS011;1717;50.240;8.406;2023-12-29T11:44:26;4.70;;;1.20;;
3407;SDS011;1717;50.240;8.406;2023-12-29T11:46:55;2.40;;;1.30;;
3407;SDS011;1717;50.240;8.406;2023-12-29T11:49:23;2.30;;;1.10;;
3407;SDS011;1717;50.240;8.406;2023-12-29T11:51:50;2.80;;;1.10;;
3407;SDS011;1717;50.240;8.406;2023-12-29T11:54:21;2.87;;;1.43;;
3407;SDS011;1717;50.240;8.406;2023-12-29T11:56:48;3.33;;;1.30;;
3407;SDS011;1717;50.240;8.406;2023-12-29T11:59:15;1.47;;;1.37;;
3407;SDS011;1717;50.240;8.406;2023-12-29T12:01:43;2.40;;;1.20;;
3407;SDS011;1717;50.240;8.406;2023-12-29T12:04:35;2.70;;;1.17;;
3407;SDS011;1717;50.240;8.406;2023-12-29T12:07:05;2.70;;;1.27;;
3407;SDS011;1717;50.240;8.406;2023-12-29T12:09:32;1.30;;;1.20;;
3407;SDS011;1717;50.240;8.406;2023-12-29T12:12:00;2.30;;;1.80;;
3407;SDS011;1717;50.240;8.406;2023-12-29T12:14:43;1.50;;;1.40;;
3407;SDS011;1717;50.240;8.406;2023-12-29T12:17:30;2.63;;;1.23;;
3407;SDS011;1717;50.240;8.406;2023-12-29T12:20:00;3.07;;;1.27;;
3407;SDS011;1717;50.240;8.406;2023-12-29T12:22:29;2.40;;;1.60;;
3407;SDS011;1717;50.240;8.406;2023-12-29T12:24:58;2.43;;;1.40;;
3407;SDS011;1717;50.240;8.406;2023-12-29T12:27:25;1.77;;;1.13;;
3407;SDS011;1717;50.240;8.406;2023-12-29T12:29:55;1.53;;;1.10;;
3407;SDS011;1717;50.240;8.406;2023-12-29T12:32:24;4.10;;;1.50;;
3407;SDS011;1717;50.240;8.406;2023-12-29T12:34:51;2.50;;;1.67;;
3407;SDS011;1717;50.240;8.406;2023-12-29T12:37:20;1.50;;;1.30;;
3407;SDS011;1717;50.240;8.406;2023-12-29T12:39:48;1.90;;;0.90;;
3407;SDS011;1717;50.240;8.406;2023-12-29T12:42:17;1.83;;;1.27;;
3407;SDS011;1717;50.240;8.406;2023-12-29T12:44:48;1.10;;;1.00;;
3407;SDS011;1717;50.240;8.406;2023-12-29T12:47:25;1.50;;;1.40;;
3407;SDS011;1717;50.240;8.406;2023-12-29T12:49:53;1.90;;;1.23;;
3407;SDS011;1717;50.240;8.406;2023-12-29T12:52:22;3.63;;;1.00;;
3407;SDS011;1717;50.240;8.406;2023-12-29T12:54:49;4.60;;;1.30;;
3407;SDS011;1717;50.240;8.406;2023-12-29T12:57:19;2.43;;;1.10;;
3407;SDS011;1717;50.240;8.406;2023-12-29T12:59:47;1.20;;;1.10;;
3407;SDS011;1717;50.240;8.406;2023-12-29T13:02:15;4.97;;;1.00;;
3407;SDS011;1717;50.240;8.406;2023-12-29T13:04:44;3.00;;;0.93;;
3407;SDS011;1717;50.240;8.406;2023-12-29T13:07:14;2.60;;;1.00;;
3407;SDS011;1717;50.240;8.406;2023-12-29T13:09:43;1.47;;;1.37;;
3407;SDS011;1717;50.240;8.406;2023-12-29T13:12:12;3.70;;;0.93;;
3407;SDS011;1717;50.240;8.406;2023-12-29T13:14:40;0.60;;;0.60;;
3407;SDS011;1717;50.240;8.406;2023-12-29T13:17:08;3.47;;;1.30;;
3407;SDS011;1717;50.240;8.406;2023-12-29T13:19:37;0.57;;;0.57;;
3407;SDS011;1717;50.240;8.406;2023-12-29T13:22:06;1.93;;;0.80;;
3407;SDS011;1717;50.240;8.406;2023-12-29T13:24:34;2.77;;;0.80;;
3407;SDS011;1717;50.240;8.406;2023-12-29T13:27:09;1.30;;;0.60;;
3407;SDS011;1717;50.240;8.406;2023-12-29T13:29:38;0.70;;;0.70;;
3407;SDS011;1717;50.240;8.406;2023-12-29T13:32:07;1.67;;;0.70;;
3407;SDS011;1717;50.240;8.406;2023-12-29T13:34:38;2.40;;;1.77;;
3407;SDS011;1717;50.240;8.406;2023-12-29T13:37:16;0.80;;;0.63;;
3407;SDS011;1717;50.240;8.406;2023-12-29T13:39:50;1.67;;;0.80;;
3407;SDS011;1717;50.240;8.406;2023-12-29T13:42:22;1.40;;;0.80;;
3407;SDS011;1717;50.240;8.406;2023-12-29T13:44:52;1.43;;;0.70;;
3407;SDS011;1717;50.240;8.406;2023-12-29T13:47:20;1.83;;;0.97;;
3407;SDS011;1717;50.240;8.406;2023-12-29T13:49:48;5.67;;;0.97;;
3407;SDS011;1717;50.240;8.406;2023-12-29T13:52:16;0.70;;;0.70;;
3407;SDS011;1717;50.240;8.406;2023-12-29T13:54:44;1.83;;;0.80;;
3407;SDS011;1717;50.240;8.406;2023-12-29T13:57:11;1.03;;;0.80;;
3407;SDS011;1717;50.240;8.406;2023-12-29T13:59:39;4.40;;;0.90;;
3407;SDS011;1717;50.240;8.406;2023-12-29T14:02:20;4.83;;;1.30;;
3407;SDS011;1717;50.240;8.406;2023-12-29T14:05:10;1.43;;;0.80;;
3407;SDS011;1717;50.240;8.406;2023-12-29T14:07:43;1.77;;;0.93;;
3407;SDS011;1717;50.240;8.406;2023-12-29T14:10:13;3.50;;;1.17;;
3407;SDS011;1717;50.240;8.406;2023-12-29T14:12:40;1.53;;;0.80;;
3407;SDS011;1717;50.240;8.406;2023-12-29T14:15:09;1.50;;;1.10;;
3407;SDS011;1717;50.240;8.406;2023-12-29T14:17:36;1.40;;;0.80;;
3407;SDS011;1717;50.240;8.406;2023-12-29T14:20:05;0.97;;;0.90;;
3407;SDS011;1717;50.240;8.406;2023-12-29T14:22:33;1.30;;;0.87;;
3407;SDS011;1717;50.240;8.406;2023-12-29T14:25:03;1.33;;;1.10;;
3407;SDS011;1717;50.240;8.406;2023-12-29T14:27:32;0.80;;;0.77;;
3407;SDS011;1717;50.240;8.406;2023-12-29T14:29:59;1.53;;;1.33;;
3407;SDS011;1717;50.240;8.406;2023-12-29T14:32:27;2.00;;;1.20;;
3407;SDS011;1717;50.240;8.406;2023-12-29T14:34:55;3.57;;;1.03;;
3407;SDS011;1717;50.240;8.406;2023-12-29T14:37:22;2.30;;;1.37;;
3407;SDS011;1717;50.240;8.406;2023-12-29T14:39:50;1.43;;;0.90;;
3407;SDS011;1717;50.240;8.406;2023-12-29T14:42:17;2.50;;;0.87;;
3407;SDS011;1717;50.240;8.406;2023-12-29T14:44:48;1.13;;;0.90;;
3407;SDS011;1717;50.240;8.406;2023-12-29T14:47:15;1.60;;;0.80;;
3407;SDS011;1717;50.240;8.406;2023-12-29T14:49:44;1.10;;;0.90;;
3407;SDS011;1717;50.240;8.406;2023-12-29T14:52:11;2.20;;;0.83;;
3407;SDS011;1717;50.240;8.406;2023-12-29T14:54:38;1.80;;;0.73;;
3407;SDS011;1717;50.240;8.406;2023-12-29T14:57:06;2.30;;;1.00;;
3407;SDS011;1717;50.240;8.406;2023-12-29T14:59:33;1.07;;;0.90;;
3407;SDS011;1717;50.240;8.406;2023-12-29T15:02:01;0.97;;;0.87;;
3407;SDS011;1717;50.240;8.406;2023-12-29T15:04:32;1.83;;;0.93;;
3407;SDS011;1717;50.240;8.406;2023-12-29T15:07:00;1.73;;;1.17;;
3407;SDS011;1717;50.240;8.406;2023-12-29T15:09:28;1.50;;;1.10;;
3407;SDS011;1717;50.240;8.406;2023-12-29T15:11:55;1.33;;;0.97;;
3407;SDS011;1717;50.240;8.406;2023-12-29T15:14:21;0.90;;;0.80;;
3407;SDS011;1717;50.240;8.406;2023-12-29T15:16:49;2.20;;;1.03;;
3407;SDS011;1717;50.240;8.406;2023-12-29T15:19:15;1.43;;;0.83;;
3407;SDS011;1717;50.240;8.406;2023-12-29T15:21:42;1.47;;;1.10;;